Time;durP1;ratioP1;P1;durP2;ratioP2;P2;SDS_P1;SDS_P2;PMS_P1;PMS_P2;Temp;Humidity;BMP_temperature;BMP_pressure;BME280_temperature;BME280_humidity;BME280_pressure;Samples;Min_cycle;Max_cycle;Signal;HPM_P1;HPM_P2
2022/12/09 09:26:17;;;;;;;22.80;14.30;;;;;;;3.93;100.00;98169.59;6243549;22;20212;-83
2022/12/09 09:28:54;;;;;;;22.77;15.93;;;;;;;3.92;100.00;98158.19;6244488;23;20208;-83
2022/12/09 09:31:35;;;;;;;22.40;15.20;;;;;;;3.98;100.00;98141.44;6246843;23;20208;-83
2022/12/09 09:34:10;;;;;;;22.83;14.97;;;;;;;3.99;100.00;98145.72;6244116;23;20694;-83
2022/12/09 09:36:43;;;;;;;20.57;14.47;;;;;;;4.22;100.00;98155.75;6223166;23;20173;-83
2022/12/09 09:39:34;;;;;;;19.47;13.40;;;;;;;4.14;100.00;98142.78;6246952;23;20200;-83
2022/12/09 09:46:36;;;;;;;18.73;13.43;;;;;;;4.51;100.00;98114.53;6250241;23;20160;-83
2022/12/09 09:49:47;;;;;;;18.53;13.07;;;;;;;4.70;100.00;98120.69;6248386;23;20205;-83
2022/12/09 09:52:31;;;;;;;17.30;12.13;;;;;;;4.82;100.00;98110.97;6274954;22;20228;-82
2022/12/09 09:55:48;;;;;;;17.33;12.60;;;;;;;4.95;100.00;98107.34;6272747;23;20169;-82
2022/12/09 09:58:21;;;;;;;13.60;11.40;;;;;;;5.09;100.00;98111.50;6221419;23;20165;-82
2022/12/09 10:01:03;;;;;;;13.57;10.87;;;;;;;5.14;100.00;98098.38;6222528;23;20152;-83
2022/12/09 10:03:59;;;;;;;13.43;10.20;;;;;;;5.41;100.00;98090.91;6245842;22;20157;-82
2022/12/09 10:15:12;;;;;;;13.83;9.53;;;;;;;6.11;100.00;98084.03;6275124;23;20156;-83
2022/12/09 10:17:59;;;;;;;12.30;9.60;;;;;;;6.22;100.00;98069.13;6248942;23;20197;-82
2022/12/09 10:20:29;;;;;;;12.80;9.30;;;;;;;6.25;100.00;98068.69;6224894;23;20149;-83
2022/12/09 10:23:03;;;;;;;12.27;9.30;;;;;;;6.28;100.00;98079.66;6225058;23;20151;-83
2022/12/09 10:25:37;;;;;;;12.13;10.10;;;;;;;6.16;100.00;98066.34;6196987;23;20212;-81
2022/12/09 10:32:19;;;;;;;13.13;10.60;;;;;;;6.14;100.00;98063.09;6243755;23;20359;-82
2022/12/09 10:39:21;;;;;;;12.80;10.87;;;;;;;6.26;100.00;98049.00;6243068;23;20140;-83
2022/12/09 10:45:08;;;;;;;12.80;9.90;;;;;;;6.33;100.00;98021.28;6219848;23;20209;-83
2022/12/09 10:47:36;;;;;;;10.57;9.40;;;;;;;6.43;100.00;98010.06;6189919;23;20212;-83
2022/12/09 10:50:05;;;;;;;11.57;9.63;;;;;;;6.47;100.00;98003.22;6248898;23;20219;-82
2022/12/09 10:52:43;;;;;;;11.67;9.63;;;;;;;6.56;100.00;98013.28;6237141;23;20240;-83
2022/12/09 10:55:29;;;;;;;10.60;9.30;;;;;;;6.50;100.00;98006.22;6240260;23;20238;-82
2022/12/09 10:58:11;;;;;;;11.13;9.73;;;;;;;6.51;100.00;98004.38;6239616;23;20224;-81
2022/12/09 11:01:14;;;;;;;11.00;8.93;;;;;;;6.47;100.00;97995.25;6214181;23;20206;-83
2022/12/09 11:03:53;;;;;;;11.57;10.13;;;;;;;6.41;100.00;97983.66;6239737;23;20211;-83
2022/12/09 11:06:41;;;;;;;12.60;10.00;;;;;;;6.31;100.00;97982.63;6242252;22;20685;-84
2022/12/09 11:09:30;;;;;;;12.67;10.90;;;;;;;6.26;100.00;97979.84;6189421;23;20210;-84
2022/12/09 11:12:08;;;;;;;17.60;13.67;;;;;;;6.17;100.00;97984.72;6214914;23;20231;-83
2022/12/09 11:20:27;;;;;;;16.00;11.50;;;;;;;5.98;100.00;97978.69;6226469;22;20206;-83
2022/12/09 11:23:12;;;;;;;13.07;11.30;;;;;;;6.00;100.00;97994.41;6236207;23;20243;-83
2022/12/09 11:25:55;;;;;;;13.97;11.43;;;;;;;5.96;100.00;97996.75;6242299;22;20193;-83
2022/12/09 11:29:00;;;;;;;12.27;10.77;;;;;;;5.89;100.00;97984.56;6241943;22;20236;-83
2022/12/09 11:34:29;;;;;;;12.60;10.07;;;;;;;5.90;100.00;97973.72;6263938;22;20286;-82
2022/12/09 17:23:27;;;;;;;18.03;13.53;;;;;;;4.92;100.00;97633.59;6185639;22;20238;31
2022/12/09 20:16:13;;;;;;;22.43;14.13;;;;;;;4.03;100.00;97787.53;6243902;23;20187;-83
2022/12/09 20:19:06;;;;;;;27.63;14.97;;;;;;;4.00;100.00;97799.38;6160491;23;20186;-83
2022/12/09 20:22:06;;;;;;;21.27;13.40;;;;;;;3.86;100.00;97796.09;6168784;23;20181;-84
